Time;durP1;ratioP1;P1;durP2;ratioP2;P2;SDS_P1;SDS_P2;PMS_P1;PMS_P2;Temp;Humidity;BMP_temperature;BMP_pressure;BME280_temperature;BME280_humidity;BME280_pressure;Samples;Min_cycle;Max_cycle;Signal;HPM_P1;HPM_P2
2021/09/28 00:02:11;;;;;;;39.13;33.05;;;22.10;99.90;;;;;;4972891;28;20038;-62
2021/09/28 00:04:37;;;;;;;41.28;31.80;;;22.00;99.90;;;;;;4974652;28;20031;-62
2021/09/28 00:07:03;;;;;;;40.90;32.25;;;22.00;99.90;;;;;;4972715;28;20485;-62
2021/09/28 00:09:29;;;;;;;43.08;33.60;;;22.00;99.90;;;;;;4973298;28;20034;-62
2021/09/28 00:11:55;;;;;;;41.50;33.25;;;21.90;99.90;;;;;;4974297;28;20035;-62
2021/09/28 00:14:21;;;;;;;40.40;33.38;;;21.90;99.90;;;;;;4974874;28;20029;-63
2021/09/28 00:16:47;;;;;;;42.42;33.60;;;22.00;99.90;;;;;;4973569;28;20027;-62
2021/09/28 00:19:13;;;;;;;41.05;32.95;;;21.90;99.90;;;;;;4973728;28;20045;-62
2021/09/28 00:21:39;;;;;;;41.75;34.97;;;22.10;99.90;;;;;;4973520;28;20034;-62
2021/09/28 00:24:05;;;;;;;39.10;33.72;;;21.70;99.90;;;;;;4974947;28;20038;-62
2021/09/28 00:26:31;;;;;;;42.10;35.03;;;22.00;99.90;;;;;;4973775;28;20027;-62
2021/09/28 00:28:56;;;;;;;46.88;35.70;;;21.90;99.90;;;;;;4956439;28;20454;-62
2021/09/28 00:31:22;;;;;;;44.95;35.85;;;22.00;99.90;;;;;;4973779;28;20030;-62
2021/09/28 00:33:48;;;;;;;43.50;35.22;;;;;;;;;;4974374;28;20088;-62
2021/09/28 00:36:13;;;;;;;47.75;36.13;;;21.90;99.90;;;;;;4970538;28;20066;-63
2021/09/28 00:38:39;;;;;;;44.47;35.25;;;22.00;99.90;;;;;;4963931;28;20408;-62
2021/09/28 00:41:05;;;;;;;43.08;36.00;;;22.00;99.90;;;;;;4973709;28;20113;-62
2021/09/28 00:43:48;;;;;;;40.75;33.63;;;21.90;99.90;;;;;;4972294;28;20078;-62
2021/09/28 00:46:13;;;;;;;41.75;33.63;;;21.90;99.90;;;;;;4971079;28;20027;-62
2021/09/28 00:48:40;;;;;;;41.75;33.53;;;21.80;99.90;;;;;;4972660;28;20050;-62
2021/09/28 00:51:05;;;;;;;44.38;34.53;;;21.90;99.90;;;;;;4972327;28;20146;-62
2021/09/28 00:53:31;;;;;;;42.42;33.58;;;21.90;99.90;;;;;;4954746;29;20106;-62
2021/09/28 00:55:57;;;;;;;42.03;34.22;;;21.80;99.90;;;;;;4954808;29;20178;-62
2021/09/28 00:58:23;;;;;;;44.22;35.97;;;21.70;99.90;;;;;;4935812;28;20031;-63
2021/09/28 01:00:49;;;;;;;49.22;34.97;;;21.70;99.90;;;;;;4974154;28;20101;-62
2021/09/28 01:03:17;;;;;;;44.75;34.53;;;21.80;99.90;;;;;;4955118;28;20485;-63
2021/09/28 01:05:43;;;;;;;41.13;32.55;;;21.80;99.90;;;;;;4954802;29;20490;-63
2021/09/28 01:08:09;;;;;;;43.55;33.50;;;21.80;99.90;;;;;;4941867;28;20040;-62
2021/09/28 01:10:36;;;;;;;46.40;35.28;;;21.70;99.90;;;;;;4949695;29;20388;-63
2021/09/28 01:13:01;;;;;;;43.65;33.47;;;21.80;99.90;;;;;;4953676;28;20086;-63
2021/09/28 01:15:27;;;;;;;46.92;33.70;;;21.80;99.90;;;;;;4954690;29;20478;-62
2021/09/28 01:17:53;;;;;;;43.28;35.33;;;21.80;99.90;;;;;;4952686;28;20393;-62
2021/09/28 01:20:18;;;;;;;42.15;34.08;;;21.80;99.90;;;;;;4968451;28;20052;-63
2021/09/28 01:22:44;;;;;;;39.30;32.85;;;21.80;99.90;;;;;;4953945;28;20039;-62
2021/09/28 01:25:11;;;;;;;44.53;33.75;;;21.80;99.90;;;;;;4937341;29;20019;-62
2021/09/28 01:27:38;;;;;;;43.42;34.05;;;21.80;99.90;;;;;;4944697;28;20479;-62
2021/09/28 01:30:06;;;;;;;39.20;32.20;;;21.80;99.90;;;;;;4935683;29;20028;-62
2021/09/28 01:32:31;;;;;;;38.30;31.65;;;21.80;99.90;;;;;;4950571;28;20031;-62
2021/09/28 01:34:57;;;;;;;40.22;31.73;;;21.70;99.90;;;;;;4954464;29;20041;-62
2021/09/28 01:37:23;;;;;;;48.58;35.30;;;21.80;99.90;;;;;;4953239;28;20035;-62
2021/09/28 01:39:49;;;;;;;42.80;35.55;;;21.70;99.90;;;;;;4955104;28;20058;-62
2021/09/28 01:42:15;;;;;;;40.45;33.85;;;21.70;99.90;;;;;;4957409;28;20074;-62
2021/09/28 01:44:40;;;;;;;42.72;34.28;;;21.10;99.90;;;;;;4957991;29;20023;-62
2021/09/28 01:47:06;;;;;;;43.60;34.83;;;21.70;99.90;;;;;;4948353;28;20089;-62
2021/09/28 01:49:34;;;;;;;41.42;34.55;;;21.70;99.90;;;;;;4969980;28;20049;-62
2021/09/28 01:51:59;;;;;;;49.88;37.67;;;21.70;99.90;;;;;;4976812;28;20022;-62
2021/09/28 01:54:25;;;;;;;54.05;41.88;;;21.60;99.90;;;;;;4977299;28;20101;-62
2021/09/28 01:56:51;;;;;;;58.55;42.22;;;21.70;99.90;;;;;;4976060;28;20495;-63
2021/09/28 01:59:16;;;;;;;59.42;42.88;;;21.60;99.90;;;;;;4977173;28;20057;-63
2021/09/28 02:01:42;;;;;;;63.50;46.03;;;21.70;99.90;;;;;;4975403;28;20035;-62
2021/09/28 02:04:07;;;;;;;69.72;49.08;;;21.60;99.90;;;;;;4977437;28;20043;-62
2021/09/28 02:06:39;;;;;;;67.47;48.13;;;21.60;99.90;;;;;;4975868;28;20031;-63
2021/09/28 02:09:07;;;;;;;65.18;45.92;;;21.60;99.90;;;;;;4976904;28;20027;-62
2021/09/28 02:11:32;;;;;;;65.35;46.17;;;21.60;99.90;;;;;;4975170;28;20433;-62
2021/09/28 02:14:00;;;;;;;66.53;47.90;;;21.50;99.90;;;;;;4976651;28;20027;-62
2021/09/28 02:16:26;;;;;;;64.80;46.45;;;21.60;99.80;;;;;;4975347;28;20032;-62
2021/09/28 02:18:52;;;;;;;64.93;45.53;;;21.60;99.40;;;;;;4958367;28;20041;-63
2021/09/28 02:21:17;;;;;;;66.38;47.55;;;21.60;99.50;;;;;;4976932;28;20406;-63
2021/09/28 02:23:43;;;;;;;69.13;49.97;;;21.50;99.50;;;;;;4975402;28;20492;-63
2021/09/28 02:26:09;;;;;;;68.30;49.13;;;21.50;99.50;;;;;;4974945;28;20393;-63
2021/09/28 02:28:34;;;;;;;67.35;47.28;;;21.60;99.60;;;;;;4974897;28;20038;-63
2021/09/28 02:31:00;;;;;;;64.43;46.13;;;21.50;99.70;;;;;;4976426;28;20019;-63
2021/09/28 02:33:25;;;;;;;69.32;51.35;;;21.50;99.90;;;;;;4976084;28;20031;-63
2021/09/28 02:35:51;;;;;;;69.50;49.00;;;21.50;99.90;;;;;;4976819;28;20038;-63
2021/09/28 02:38:17;;;;;;;69.03;49.50;;;21.60;99.90;;;;;;4975713;28;20030;-63
2021/09/28 02:40:43;;;;;;;72.47;51.03;;;21.60;99.90;;;;;;4976039;28;20038;-63
2021/09/28 02:43:09;;;;;;;76.47;49.58;;;21.70;99.90;;;;;;4975598;28;20043;-63
2021/09/28 02:45:34;;;;;;;69.97;50.22;;;21.70;99.90;;;;;;4976370;28;20023;-63
2021/09/28 02:48:00;;;;;;;69.35;49.22;;;21.70;99.90;;;;;;4974016;28;20031;-63
2021/09/28 02:50:26;;;;;;;74.13;52.03;;;21.60;99.90;;;;;;4956152;29;20062;-63
2021/09/28 02:52:51;;;;;;;71.93;51.45;;;21.60;99.90;;;;;;4955666;28;20054;-63
2021/09/28 02:55:17;;;;;;;79.53;51.47;;;21.70;99.90;;;;;;4957091;28;20087;-63
2021/09/28 02:57:42;;;;;;;76.30;50.97;;;21.70;99.90;;;;;;4956368;28;20470;-63
2021/09/28 03:00:09;;;;;;;79.07;52.22;;;21.70;99.90;;;;;;4954998;28;20026;-63
2021/09/28 03:02:35;;;;;;;74.00;51.88;;;21.70;99.90;;;;;;4955904;28;20458;-62
2021/09/28 03:05:00;;;;;;;73.68;51.92;;;21.80;99.90;;;;;;4955407;29;20157;-62
2021/09/28 03:07:26;;;;;;;76.85;53.22;;;21.80;99.90;;;;;;4955602;28;20038;-62
2021/09/28 03:09:52;;;;;;;75.22;50.10;;;21.80;99.90;;;;;;4956214;28;20034;-62
2021/09/28 03:12:17;;;;;;;74.57;52.63;;;21.80;99.90;;;;;;4956010;28;20493;-62
2021/09/28 03:14:43;;;;;;;74.93;51.67;;;21.80;99.90;;;;;;4956234;29;20104;-63
2021/09/28 03:17:09;;;;;;;78.07;55.03;;;21.70;99.90;;;;;;4954954;28;20034;-63
2021/09/28 03:19:34;;;;;;;84.90;56.78;;;21.70;99.90;;;;;;4956383;28;20535;-63
2021/09/28 03:22:00;;;;;;;84.93;56.67;;;21.70;99.90;;;;;;4955774;28;22443;-63
2021/09/28 03:24:26;;;;;;;84.80;55.42;;;21.80;99.90;;;;;;4956391;28;20039;-63
2021/09/28 03:26:51;;;;;;;83.05;57.42;;;21.70;99.90;;;;;;4954027;28;20397;-62
2021/09/28 03:29:17;;;;;;;83.45;57.15;;;21.60;99.90;;;;;;4955974;28;20053;-63
2021/09/28 03:31:42;;;;;;;87.93;58.72;;;21.60;99.90;;;;;;4956172;29;20141;-62
2021/09/28 03:34:08;;;;;;;90.30;59.85;;;21.60;99.90;;;;;;4955424;28;20129;-62
2021/09/28 03:36:33;;;;;;;91.50;60.58;;;21.50;99.90;;;;;;4956086;28;20034;-62
2021/09/28 03:38:59;;;;;;;87.93;60.25;;;21.50;99.90;;;;;;4954799;28;20496;-63
2021/09/28 03:41:25;;;;;;;85.70;58.45;;;21.50;99.90;;;;;;4956034;28;20067;-63
2021/09/28 03:43:51;;;;;;;86.90;58.00;;;21.50;99.90;;;;;;4943353;28;20066;-63
2021/09/28 03:46:16;;;;;;;84.10;59.25;;;21.60;99.90;;;;;;4937424;29;20035;-63
2021/09/28 03:48:42;;;;;;;80.18;55.25;;;21.60;99.90;;;;;;4959556;28;20057;-62
2021/09/28 03:51:08;;;;;;;82.28;55.10;;;21.50;99.90;;;;;;4974969;28;20031;-62
2021/09/28 03:53:34;;;;;;;80.97;53.95;;;21.50;99.90;;;;;;4974214;28;20065;-62
2021/09/28 03:55:59;;;;;;;74.55;52.25;;;21.40;99.90;;;;;;4974590;28;20046;-63
2021/09/28 03:58:25;;;;;;;75.53;51.22;;;21.50;99.90;;;;;;4972972;28;20066;-63
2021/09/28 04:00:51;;;;;;;69.88;48.80;;;21.40;99.90;;;;;;4974103;28;20078;-63
2021/09/28 04:03:17;;;;;;;68.75;44.83;;;21.40;99.90;;;;;;4956323;28;20125;-63
2021/09/28 04:05:42;;;;;;;61.17;43.42;;;21.40;99.90;;;;;;4971736;28;20035;-63
2021/09/28 04:08:08;;;;;;;60.35;43.60;;;21.40;99.90;;;;;;4963772;28;20031;-62
2021/09/28 04:10:35;;;;;;;63.47;44.90;;;21.40;99.90;;;;;;4974600;28;20027;-62
2021/09/28 04:13:06;;;;;;;63.88;44.35;;;21.40;99.90;;;;;;4972538;28;20038;-63
2021/09/28 04:15:39;;;;;;;58.50;41.13;;;21.30;99.90;;;;;;4975145;28;20034;-62
2021/09/28 04:18:05;;;;;;;56.40;38.90;;;21.30;99.90;;;;;;4972908;28;20027;-62
2021/09/28 04:20:33;;;;;;;45.72;34.90;;;21.30;99.90;;;;;;4974600;28;20041;-62
2021/09/28 04:22:59;;;;;;;46.50;35.08;;;21.40;99.90;;;;;;4973126;28;20038;-63
2021/09/28 04:25:25;;;;;;;47.13;33.85;;;21.40;99.90;;;;;;4974303;28;20041;-62
2021/09/28 04:27:50;;;;;;;47.65;34.35;;;21.30;99.90;;;;;;4972747;28;20485;-63
2021/09/28 04:30:16;;;;;;;48.28;34.60;;;21.40;99.90;;;;;;4957092;28;20117;-62
2021/09/28 04:32:42;;;;;;;52.08;34.47;;;21.40;99.90;;;;;;4973404;28;20113;-63
2021/09/28 04:35:07;;;;;;;50.28;34.15;;;21.40;99.90;;;;;;4973988;28;20037;-64
2021/09/28 04:37:33;;;;;;;45.38;33.55;;;21.30;99.90;;;;;;4956130;28;20362;-62
2021/09/28 04:39:58;;;;;;;46.15;33.17;;;21.30;99.90;;;;;;4956883;28;20047;-63
2021/09/28 04:42:24;;;;;;;46.75;32.78;;;21.20;99.90;;;;;;4973205;28;20113;-62
2021/09/28 04:44:49;;;;;;;45.42;33.35;;;21.30;99.90;;;;;;4971498;28;20048;-62
2021/09/28 04:47:15;;;;;;;44.10;32.83;;;21.30;99.90;;;;;;4972422;28;20031;-62
2021/09/28 04:49:41;;;;;;;47.92;33.60;;;21.10;99.90;;;;;;4970606;28;20043;-62
2021/09/28 04:52:06;;;;;;;44.20;33.80;;;21.10;99.90;;;;;;4953838;28;20523;-63
2021/09/28 04:54:32;;;;;;;43.80;31.33;;;21.20;99.90;;;;;;4953379;28;20030;-63
2021/09/28 04:56:59;;;;;;;47.05;33.35;;;21.20;99.90;;;;;;4953645;29;20063;-62
2021/09/28 04:59:24;;;;;;;45.33;33.25;;;21.20;99.90;;;;;;4941314;28;20446;-63
2021/09/28 05:01:50;;;;;;;49.17;32.97;;;21.20;99.90;;;;;;4953392;28;20073;-63
2021/09/28 05:04:16;;;;;;;45.25;32.47;;;21.10;99.90;;;;;;4954589;29;20035;-63
2021/09/28 05:06:42;;;;;;;45.22;33.88;;;21.10;99.90;;;;;;4942576;28;20037;-63
2021/09/28 05:09:07;;;;;;;49.50;35.78;;;21.10;99.90;;;;;;4954945;29;20039;-63
2021/09/28 05:11:33;;;;;;;47.55;35.55;;;21.20;99.90;;;;;;4952388;28;20381;-63
2021/09/28 05:13:59;;;;;;;45.50;34.63;;;21.20;99.90;;;;;;4954575;28;20028;-63
2021/09/28 05:16:25;;;;;;;50.78;37.72;;;21.20;99.90;;;;;;4946174;28;20469;-63
2021/09/28 05:18:50;;;;;;;54.22;37.33;;;21.20;99.90;;;;;;4958669;29;20162;-63
2021/09/28 05:21:17;;;;;;;50.83;36.08;;;21.20;99.90;;;;;;4956822;28;20035;-62
2021/09/28 05:23:45;;;;;;;51.78;35.75;;;21.10;99.90;;;;;;4958381;29;20110;-62
2021/09/28 05:26:13;;;;;;;47.75;36.33;;;21.20;99.90;;;;;;4950281;28;20031;-63
2021/09/28 05:28:39;;;;;;;46.10;34.75;;;21.10;99.90;;;;;;4941936;28;20396;-62
2021/09/28 05:31:04;;;;;;;49.30;35.95;;;21.10;99.90;;;;;;4940201;29;20098;-63
2021/09/28 05:33:30;;;;;;;52.65;36.33;;;21.20;99.90;;;;;;4958174;29;20115;-63
2021/09/28 05:35:55;;;;;;;52.38;37.40;;;21.20;99.90;;;;;;4960464;28;20027;-62
2021/09/28 05:38:21;;;;;;;53.10;37.40;;;21.10;99.90;;;;;;4957044;28;20517;-63
2021/09/28 05:40:47;;;;;;;50.45;35.80;;;21.20;99.90;;;;;;4958585;28;20027;-62
2021/09/28 05:43:13;;;;;;;50.95;36.75;;;21.10;99.90;;;;;;4968873;28;20156;-63
2021/09/28 05:45:39;;;;;;;61.72;39.42;;;21.10;99.90;;;;;;4967746;28;20031;-63
2021/09/28 05:48:04;;;;;;;52.35;37.58;;;21.00;99.90;;;;;;4936761;28;20028;-62
2021/09/28 05:50:30;;;;;;;46.88;35.50;;;21.20;99.90;;;;;;4973603;28;20062;-63
2021/09/28 05:52:57;;;;;;;53.03;37.63;;;21.10;99.90;;;;;;4959479;28;20453;-63
2021/09/28 05:55:24;;;;;;;48.22;35.50;;;21.10;99.90;;;;;;4956479;28;20110;-62
2021/09/28 05:57:50;;;;;;;51.67;38.00;;;21.20;99.90;;;;;;4962040;28;20028;-63
2021/09/28 06:00:16;;;;;;;55.40;38.88;;;21.20;99.90;;;;;;4974663;28;20022;-63
2021/09/28 06:02:43;;;;;;;50.00;39.10;;;21.10;99.90;;;;;;4959026;28;20122;-62
2021/09/28 06:05:45;;;;;;;59.08;40.20;;;21.00;99.90;;;;;;4974605;28;20397;-63
2021/09/28 06:08:11;;;;;;;57.85;40.72;;;21.00;99.90;;;;;;4972722;28;20038;-62
2021/09/28 06:10:37;;;;;;;56.38;40.88;;;21.10;99.90;;;;;;4971274;28;20037;-63
2021/09/28 06:13:02;;;;;;;55.05;39.42;;;21.00;99.90;;;;;;4954024;29;20031;-63
2021/09/28 06:15:28;;;;;;;54.28;38.40;;;21.20;99.90;;;;;;4974486;28;20477;-63
2021/09/28 06:17:53;;;;;;;61.20;40.92;;;21.20;99.90;;;;;;4959086;28;20050;-63
2021/09/28 06:20:19;;;;;;;59.58;43.42;;;21.20;99.90;;;;;;4974826;28;20173;-63
2021/09/28 06:22:45;;;;;;;63.20;44.03;;;21.30;99.90;;;;;;4967549;28;20034;-63
2021/09/28 06:25:10;;;;;;;63.47;43.75;;;21.10;99.90;;;;;;4974066;28;20057;-63
2021/09/28 06:27:36;;;;;;;62.20;44.08;;;21.20;99.90;;;;;;4974301;28;20492;-63
2021/09/28 06:30:02;;;;;;;62.67;43.75;;;21.30;99.90;;;;;;4963416;28;20062;-63
2021/09/28 06:32:28;;;;;;;61.25;44.65;;;21.20;99.90;;;;;;4976574;28;20035;-63
2021/09/28 06:34:54;;;;;;;63.17;43.72;;;21.20;99.90;;;;;;4967709;28;20038;-63
2021/09/28 06:37:19;;;;;;;61.80;43.58;;;21.20;99.90;;;;;;4957916;28;20041;-63
2021/09/28 06:39:45;;;;;;;67.65;47.53;;;21.30;99.90;;;;;;4975162;28;20481;-63
2021/09/28 06:42:10;;;;;;;67.88;45.90;;;21.40;99.90;;;;;;4971734;28;20121;-63
2021/09/28 06:44:36;;;;;;;65.68;46.53;;;21.40;99.90;;;;;;4964761;28;20030;-63
2021/09/28 06:47:02;;;;;;;69.50;46.97;;;21.60;99.90;;;;;;4972829;28;20034;-63
2021/09/28 06:49:27;;;;;;;72.25;48.38;;;21.60;99.90;;;;;;4956719;28;20050;-63
2021/09/28 06:51:53;;;;;;;71.80;49.65;;;21.60;99.90;;;;;;4953937;28;20027;-64
2021/09/28 06:54:18;;;;;;;70.53;48.53;;;21.60;99.90;;;;;;4956548;29;20429;-64
2021/09/28 06:56:44;;;;;;;71.40;49.22;;;21.50;99.90;;;;;;4956120;28;20035;-64
2021/09/28 06:59:10;;;;;;;69.00;49.20;;;21.70;99.90;;;;;;4956511;28;20039;-64
2021/09/28 07:01:40;;;;;;;74.82;47.28;;;21.80;99.90;;;;;;4950806;28;20116;-64
2021/09/28 07:04:06;;;;;;;69.43;50.20;;;21.70;99.90;;;;;;4946571;29;20118;-64
2021/09/28 07:06:32;;;;;;;70.20;49.63;;;21.80;99.90;;;;;;4959645;28;20042;-64
2021/09/28 07:08:58;;;;;;;73.07;49.22;;;21.80;99.90;;;;;;4955090;28;20031;-64
2021/09/28 07:11:24;;;;;;;73.30;49.00;;;21.80;99.90;;;;;;4954846;28;20031;-64
2021/09/28 07:13:50;;;;;;;68.72;48.85;;;21.80;99.90;;;;;;4955857;28;20418;-63
2021/09/28 07:16:17;;;;;;;73.05;51.05;;;21.70;99.90;;;;;;4955339;28;20019;-64
2021/09/28 07:18:43;;;;;;;78.25;51.63;;;21.80;99.90;;;;;;4955657;29;20039;-63
2021/09/28 07:21:09;;;;;;;69.18;48.70;;;21.80;99.90;;;;;;4954839;28;20031;-64
2021/09/28 07:23:36;;;;;;;66.38;47.38;;;21.80;99.90;;;;;;4955530;28;20035;-64
2021/09/28 07:26:03;;;;;;;69.15;47.80;;;21.90;99.90;;;;;;4953901;28;20031;-64
2021/09/28 07:28:28;;;;;;;58.83;44.15;;;22.00;99.90;;;;;;4955264;28;20035;-64
2021/09/28 07:30:54;;;;;;;62.92;43.38;;;22.10;99.90;;;;;;4950618;28;20039;-64
2021/09/28 07:33:19;;;;;;;59.65;41.83;;;22.10;99.90;;;;;;4954156;29;20544;-64
2021/09/28 07:35:45;;;;;;;54.70;40.53;;;22.00;99.90;;;;;;4938062;28;20041;-64
2021/09/28 07:38:12;;;;;;;57.60;42.25;;;22.10;99.80;;;;;;4954771;28;20504;-64
2021/09/28 07:40:43;;;;;;;61.97;44.08;;;22.20;99.70;;;;;;4953907;28;20035;-64
2021/09/28 07:43:10;;;;;;;56.65;42.08;;;22.30;99.60;;;;;;4955395;29;20031;-64
2021/09/28 07:45:36;;;;;;;61.63;42.75;;;22.20;99.30;;;;;;4937171;28;20023;-64
2021/09/28 07:48:02;;;;;;;60.85;44.40;;;22.40;99.40;;;;;;4952737;28;20495;-63
2021/09/28 07:50:28;;;;;;;69.00;44.88;;;22.60;99.10;;;;;;4973769;28;20037;-64
2021/09/28 07:52:53;;;;;;;60.10;43.20;;;22.90;98.80;;;;;;4974305;28;20023;-64
2021/09/28 07:55:19;;;;;;;61.53;44.17;;;22.90;98.20;;;;;;4968848;28;20030;-63
2021/09/28 07:57:45;;;;;;;60.05;43.85;;;23.10;97.90;;;;;;4970486;28;20130;-64
2021/09/28 08:00:11;;;;;;;64.30;44.58;;;23.30;97.70;;;;;;4973970;28;20481;-63
2021/09/28 08:02:38;;;;;;;62.58;43.45;;;23.50;97.40;;;;;;4973614;28;20463;-63
2021/09/28 08:05:05;;;;;;;68.45;47.63;;;23.40;97.20;;;;;;4973289;28;20499;-63
2021/09/28 08:07:30;;;;;;;62.88;45.03;;;23.40;97.10;;;;;;4971413;28;20089;-64
2021/09/28 08:09:56;;;;;;;63.25;44.55;;;23.40;96.90;;;;;;4966243;28;20039;-64
2021/09/28 08:12:22;;;;;;;63.70;48.33;;;23.50;96.60;;;;;;4971690;28;20497;-64
2021/09/28 08:14:47;;;;;;;65.80;47.55;;;23.50;96.80;;;;;;4974380;28;20043;-64
2021/09/28 08:17:13;;;;;;;67.15;50.35;;;23.50;96.50;;;;;;4972624;28;20061;-64
2021/09/28 08:19:43;;;;;;;62.15;45.67;;;23.50;96.50;;;;;;4964699;28;20170;-63
2021/09/28 08:22:12;;;;;;;60.88;46.47;;;23.50;96.80;;;;;;4973407;28;20023;-64
2021/09/28 08:24:42;;;;;;;65.35;46.67;;;23.50;96.40;;;;;;4947418;29;20023;-64
2021/09/28 08:29:59;;;;;;;62.97;47.20;;;23.50;96.50;;;;;;4971944;28;20048;-63
2021/09/28 08:32:25;;;;;;;65.03;47.10;;;23.60;96.20;;;;;;4973109;28;20042;-63
2021/09/28 08:34:51;;;;;;;63.90;45.90;;;23.50;96.70;;;;;;4973750;28;20019;-64
2021/09/28 08:37:18;;;;;;;62.60;46.53;;;23.40;96.60;;;;;;4972956;28;20412;-63
2021/09/28 08:39:45;;;;;;;63.97;46.83;;;23.60;96.30;;;;;;4968809;28;20041;-63
2021/09/28 08:42:11;;;;;;;66.15;46.90;;;23.60;96.50;;;;;;4969185;28;20113;-63
2021/09/28 08:44:37;;;;;;;67.88;45.92;;;23.60;96.40;;;;;;4969884;28;20042;-63
2021/09/28 08:47:03;;;;;;;62.35;47.88;;;23.70;96.40;;;;;;4972709;28;20031;-63
2021/09/28 08:49:29;;;;;;;61.35;46.95;;;23.70;96.30;;;;;;4969568;28;20066;-64
2021/09/28 08:51:55;;;;;;;67.80;49.58;;;23.60;95.90;;;;;;4956743;28;20059;-63
2021/09/28 08:54:21;;;;;;;67.95;49.40;;;23.60;96.40;;;;;;4938144;28;20024;-63
2021/09/28 08:56:47;;;;;;;65.47;49.58;;;23.60;96.30;;;;;;4970689;28;20182;-63
2021/09/28 08:59:18;;;;;;;61.75;45.50;;;23.60;96.20;;;;;;4959652;28;20033;-63
2021/09/28 09:02:06;;;;;;;59.95;46.90;;;23.70;96.20;;;;;;4957184;28;20090;-63
2021/09/28 09:04:32;;;;;;;59.33;45.35;;;23.80;95.90;;;;;;4949006;28;20166;-63
2021/09/28 09:06:57;;;;;;;62.50;47.17;;;23.70;96.10;;;;;;4952025;28;20114;-63
2021/09/28 09:09:23;;;;;;;58.05;44.67;;;23.90;95.60;;;;;;4955081;28;20023;-62
2021/09/28 09:11:51;;;;;;;65.80;45.95;;;23.90;96.00;;;;;;4952395;28;20355;-62
2021/09/28 09:14:24;;;;;;;59.60;45.38;;;24.00;95.60;;;;;;4937001;28;20419;-62
2021/09/28 09:16:55;;;;;;;58.05;43.25;;;24.10;95.00;;;;;;4940581;29;20110;-62
2021/09/28 09:19:24;;;;;;;57.30;41.40;;;24.10;94.80;;;;;;4951928;28;20113;-63
2021/09/28 09:21:58;;;;;;;58.33;43.33;;;24.10;94.90;;;;;;4958370;28;20139;-63
2021/09/28 09:24:49;;;;;;;64.95;47.17;;;24.10;94.70;;;;;;4962445;28;20027;-64
2021/09/28 09:27:28;;;;;;;63.70;47.65;;;24.20;94.80;;;;;;4958381;28;20023;-64
2021/09/28 09:30:13;;;;;;;61.47;44.85;;;24.30;94.60;;;;;;4952989;28;20070;-65
2021/09/28 09:32:48;;;;;;;55.63;43.58;;;24.40;94.10;;;;;;4954431;28;20023;-65
2021/09/28 09:35:34;;;;;;;59.63;43.00;;;24.40;93.90;;;;;;4968188;28;20027;-62
2021/09/28 09:38:18;;;;;;;55.70;43.22;;;24.50;93.40;;;;;;4959713;28;20470;-63
2021/09/28 09:40:46;;;;;;;70.60;49.10;;;24.60;93.40;;;;;;4952463;28;20072;-63
2021/09/28 09:43:14;;;;;;;65.53;48.88;;;24.70;93.90;;;;;;4948110;28;20535;-64
2021/09/28 09:45:40;;;;;;;58.28;43.20;;;24.60;94.00;;;;;;4936266;29;20027;-63
2021/09/28 09:48:24;;;;;;;57.90;42.78;;;24.70;93.40;;;;;;4956328;28;20035;-62
2021/09/28 09:50:57;;;;;;;55.70;38.08;;;25.00;92.10;;;;;;4973128;28;20015;-63
2021/09/28 09:53:23;;;;;;;49.38;37.70;;;25.10;90.50;;;;;;4961664;28;20055;-63
2021/09/28 09:55:49;;;;;;;51.38;37.85;;;25.20;90.50;;;;;;4967860;28;20034;-63
2021/09/28 09:58:14;;;;;;;59.38;44.28;;;25.30;90.30;;;;;;4972213;28;20035;-63
2021/09/28 10:00:40;;;;;;;60.42;43.72;;;25.30;91.60;;;;;;4967733;28;20019;-62
2021/09/28 10:03:07;;;;;;;55.13;42.15;;;25.50;92.80;;;;;;4974663;28;20055;-63
2021/09/28 10:05:34;;;;;;;46.97;37.17;;;;;;;;;;4957255;28;20023;-63
2021/09/28 10:08:04;;;;;;;49.38;35.97;;;25.50;96.20;;;;;;4963756;28;20223;-63
2021/09/28 10:10:30;;;;;;;44.88;34.80;;;25.80;85.40;;;;;;4955506;28;20386;-63
2021/09/28 10:12:56;;;;;;;48.92;37.05;;;25.90;85.20;;;;;;4958500;28;20030;-63
2021/09/28 10:15:21;;;;;;;49.00;35.00;;;25.80;86.00;;;;;;4976551;28;20042;-63
2021/09/28 10:17:48;;;;;;;50.55;39.15;;;25.90;85.30;;;;;;4979331;28;20039;-64
2021/09/28 10:20:23;;;;;;;46.95;38.75;;;26.00;86.90;;;;;;4951210;28;20027;-64
2021/09/28 10:23:21;;;;;;;46.30;36.03;;;26.10;85.30;;;;;;4975565;28;20114;-64
2021/09/28 10:25:47;;;;;;;47.70;36.60;;;26.10;84.60;;;;;;4960887;28;20043;-64
2021/09/28 10:28:15;;;;;;;43.70;36.78;;;26.20;85.40;;;;;;4973650;28;20031;-64
2021/09/28 10:30:43;;;;;;;45.45;35.58;;;26.20;84.70;;;;;;4973630;28;20053;-64
2021/09/28 10:33:11;;;;;;;44.20;34.80;;;26.30;84.30;;;;;;4957826;28;20085;-64
2021/09/28 10:36:11;;;;;;;48.17;38.20;;;26.20;84.20;;;;;;4969422;28;20034;-64
2021/09/28 10:38:43;;;;;;;46.20;36.53;;;26.30;83.30;;;;;;4974722;28;20038;-64
2021/09/28 10:41:28;;;;;;;48.67;36.53;;;26.20;82.80;;;;;;4977130;28;20034;-64
2021/09/28 10:43:54;;;;;;;46.70;34.15;;;26.40;83.30;;;;;;4975759;28;20567;-64
2021/09/28 10:46:39;;;;;;;47.10;36.30;;;26.70;83.50;;;;;;4975457;28;20061;-64
2021/09/28 10:49:25;;;;;;;44.65;33.88;;;26.50;81.90;;;;;;4969605;28;20186;-64
2021/09/28 10:51:51;;;;;;;52.00;37.22;;;26.70;79.50;;;;;;4955705;28;20436;-64
2021/09/28 10:54:16;;;;;;;47.28;37.83;;;26.70;81.60;;;;;;4946393;28;20035;-64
2021/09/28 10:56:51;;;;;;;46.72;37.03;;;26.50;80.60;;;;;;4955829;28;20059;-64
2021/09/28 10:59:17;;;;;;;49.30;39.15;;;26.50;80.20;;;;;;4955864;28;20431;-63
2021/09/28 11:02:06;;;;;;;46.70;38.15;;;26.30;81.30;;;;;;4955942;28;20114;-63
2021/09/28 11:04:32;;;;;;;50.25;36.53;;;26.50;81.00;;;;;;4946750;28;20047;-63
2021/09/28 11:07:07;;;;;;;52.47;40.00;;;26.50;82.00;;;;;;4955213;28;20035;-63
2021/09/28 11:09:51;;;;;;;52.15;40.67;;;26.50;81.40;;;;;;4948860;29;20470;-64
2021/09/28 11:12:18;;;;;;;50.78;38.72;;;26.60;80.30;;;;;;4952116;28;20023;-63
2021/09/28 11:14:43;;;;;;;45.03;36.00;;;26.50;81.40;;;;;;4955912;28;20036;-64
2021/09/28 11:17:15;;;;;;;47.80;37.95;;;26.70;81.10;;;;;;4953976;28;20103;-63
2021/09/28 11:19:41;;;;;;;52.22;37.85;;;26.80;79.90;;;;;;4952363;28;20123;-63
2021/09/28 11:22:11;;;;;;;48.20;36.90;;;26.90;79.80;;;;;;4954727;28;20418;-63
2021/09/28 11:24:37;;;;;;;49.28;38.70;;;26.90;80.30;;;;;;4955671;28;20031;-63
2021/09/28 11:27:09;;;;;;;50.97;39.17;;;26.90;80.00;;;;;;4954821;28;20473;-64
2021/09/28 11:29:35;;;;;;;52.83;41.22;;;27.00;80.30;;;;;;4954400;29;20441;-64
2021/09/28 11:32:05;;;;;;;49.88;41.28;;;26.80;80.10;;;;;;4953214;28;20122;-64
2021/09/28 11:34:33;;;;;;;53.97;40.67;;;26.80;79.30;;;;;;4948586;29;20035;-64
2021/09/28 11:37:03;;;;;;;54.30;41.05;;;26.80;79.60;;;;;;4955135;28;20028;-64
2021/09/28 11:39:38;;;;;;;54.50;39.60;;;27.00;79.30;;;;;;4966841;28;20035;-64
2021/09/28 11:42:05;;;;;;;50.72;41.42;;;27.10;79.70;;;;;;4953160;28;20130;-64
2021/09/28 11:44:43;;;;;;;51.15;38.85;;;27.00;79.30;;;;;;4953298;29;20113;-64
2021/09/28 11:47:13;;;;;;;52.13;41.78;;;27.00;77.50;;;;;;4954494;28;20050;-63
2021/09/28 11:49:56;;;;;;;52.95;42.08;;;26.80;90.30;;;;;;4967348;28;20057;-63
2021/09/28 11:52:23;;;;;;;54.10;41.55;;;27.20;90.80;;;;;;4956614;28;20038;-63
2021/09/28 11:54:50;;;;;;;49.65;40.03;;;27.20;82.70;;;;;;4973671;28;20031;-63
2021/09/28 11:57:16;;;;;;;46.63;36.17;;;27.60;86.80;;;;;;4972683;28;20051;-64
2021/09/28 11:59:42;;;;;;;47.88;37.05;;;27.80;76.80;;;;;;4972817;28;20023;-64
2021/09/28 12:02:08;;;;;;;47.50;37.10;;;27.80;79.10;;;;;;4973643;28;20433;-64
2021/09/28 12:05:26;;;;;;;46.30;38.10;;;27.70;75.30;;;;;;4974630;28;20105;-63
2021/09/28 12:10:16;;;;;;;;;;;28.00;71.20;;;;;;4974576;28;19906;-64
2021/09/28 12:12:41;;;;;;;43.00;34.80;;;28.20;71.40;;;;;;4973273;28;19910;-64
2021/09/28 12:15:08;;;;;;;49.30;39.15;;;28.30;75.50;;;;;;4972908;28;20057;-65
2021/09/28 12:17:41;;;;;;;49.45;38.63;;;28.80;70.30;;;;;;4971690;28;20034;-64
2021/09/28 12:20:15;;;;;;;53.67;41.03;;;30.80;70.10;;;;;;4973964;28;20030;-64
2021/09/28 12:22:46;;;;;;;52.15;40.20;;;31.60;64.20;;;;;;4972394;28;20054;-64
2021/09/28 12:25:22;;;;;;;43.25;35.58;;;34.30;58.80;;;;;;4972532;28;20081;-65
2021/09/28 12:27:58;;;;;;;43.08;34.92;;;36.10;58.00;;;;;;4971397;28;20076;-63
2021/09/28 12:30:27;;;;;;;43.30;35.03;;;36.20;42.80;;;;;;4967195;28;20026;-63
2021/09/28 12:32:53;;;;;;;41.20;34.47;;;36.70;42.70;;;;;;4973245;28;20034;-64
2021/09/28 12:35:33;;;;;;;46.78;37.95;;;36.40;41.10;;;;;;4973806;28;20385;-64
2021/09/28 12:38:04;;;;;;;41.83;36.65;;;36.00;38.50;;;;;;4973823;28;20457;-63